sensor_id;sensor_type;location;lat;lon;timestamp;temperature;humidity
1686;DHT22;840;47.980;7.830;2024-01-10T00:02:20;-0.50;99.90
1686;DHT22;840;47.980;7.830;2024-01-10T00:04:47;-0.50;99.90
1686;DHT22;840;47.980;7.830;2024-01-10T00:07:15;-0.60;99.90
1686;DHT22;840;47.980;7.830;2024-01-10T00:09:41;-0.60;99.90
1686;DHT22;840;47.980;7.830;2024-01-10T00:12:08;-0.70;99.90
1686;DHT22;840;47.980;7.830;2024-01-10T00:14:35;-0.70;99.90
1686;DHT22;840;47.980;7.830;2024-01-10T00:17:01;-0.70;99.90
1686;DHT22;840;47.980;7.830;2024-01-10T00:19:28;-0.80;99.90
1686;DHT22;840;47.980;7.830;2024-01-10T00:21:55;-0.80;99.90
1686;DHT22;840;47.980;7.830;2024-01-10T00:24:23;-0.80;99.90
1686;DHT22;840;47.980;7.830;2024-01-10T00:26:50;-0.90;99.90
1686;DHT22;840;47.980;7.830;2024-01-10T00:29:16;-1.00;99.90
1686;DHT22;840;47.980;7.830;2024-01-10T00:31:43;-1.00;99.90
1686;DHT22;840;47.980;7.830;2024-01-10T00:34:09;-1.00;99.90
1686;DHT22;840;47.980;7.830;2024-01-10T00:36:36;-1.00;99.90
1686;DHT22;840;47.980;7.830;2024-01-10T00:39:04;-1.00;99.90
1686;DHT22;840;47.980;7.830;2024-01-10T00:41:32;-0.90;99.90
1686;DHT22;840;47.980;7.830;2024-01-10T00:43:58;-0.90;99.90
1686;DHT22;840;47.980;7.830;2024-01-10T00:46:25;-0.80;99.90
1686;DHT22;840;47.980;7.830;2024-01-10T00:48:52;-0.70;99.90
1686;DHT22;840;47.980;7.830;2024-01-10T00:51:18;-0.70;99.90
1686;DHT22;840;47.980;7.830;2024-01-10T00:53:45;-0.60;99.90
1686;DHT22;840;47.980;7.830;2024-01-10T00:56:12;-0.60;99.90
1686;DHT22;840;47.980;7.830;2024-01-10T00:58:40;-0.60;99.90
1686;DHT22;840;47.980;7.830;2024-01-10T01:01:07;-0.70;99.90
1686;DHT22;840;47.980;7.830;2024-01-10T01:03:33;-0.70;99.90
1686;DHT22;840;47.980;7.830;2024-01-10T01:06:01;-0.70;99.90
1686;DHT22;840;47.980;7.830;2024-01-10T01:08:28;-0.80;99.90
1686;DHT22;840;47.980;7.830;2024-01-10T01:10:55;-0.90;99.90
1686;DHT22;840;47.980;7.830;2024-01-10T01:13:21;-0.90;99.90
1686;DHT22;840;47.980;7.830;2024-01-10T01:15:49;-0.90;99.90
1686;DHT22;840;47.980;7.830;2024-01-10T01:18:16;-1.00;99.90
1686;DHT22;840;47.980;7.830;2024-01-10T01:20:44;-0.90;99.90
1686;DHT22;840;47.980;7.830;2024-01-10T01:23:14;-0.80;99.90
1686;DHT22;840;47.980;7.830;2024-01-10T01:25:40;-0.70;99.90
1686;DHT22;840;47.980;7.830;2024-01-10T01:28:07;-0.70;99.90
1686;DHT22;840;47.980;7.830;2024-01-10T01:30:34;-0.60;99.90
1686;DHT22;840;47.980;7.830;2024-01-10T01:33:02;-0.50;99.90
1686;DHT22;840;47.980;7.830;2024-01-10T01:35:30;-0.50;99.90
1686;DHT22;840;47.980;7.830;2024-01-10T01:37:56;-0.40;99.90
1686;DHT22;840;47.980;7.830;2024-01-10T01:40:23;-0.40;99.90
1686;DHT22;840;47.980;7.830;2024-01-10T01:42:50;-0.40;99.90
1686;DHT22;840;47.980;7.830;2024-01-10T01:45:16;-0.40;99.90
1686;DHT22;840;47.980;7.830;2024-01-10T01:47:43;-0.40;99.90
1686;DHT22;840;47.980;7.830;2024-01-10T01:50:11;-0.40;99.90
1686;DHT22;840;47.980;7.830;2024-01-10T01:52:38;-0.30;99.90
1686;DHT22;840;47.980;7.830;2024-01-10T01:55:06;-0.40;99.90
1686;DHT22;840;47.980;7.830;2024-01-10T01:57:34;-0.40;99.90
1686;DHT22;840;47.980;7.830;2024-01-10T02:00:01;-0.40;99.90
1686;DHT22;840;47.980;7.830;2024-01-10T02:02:29;-0.40;99.90
1686;DHT22;840;47.980;7.830;2024-01-10T02:04:56;-0.40;99.90
1686;DHT22;840;47.980;7.830;2024-01-10T02:07:25;-0.40;99.90
1686;DHT22;840;47.980;7.830;2024-01-10T02:09:53;-0.40;99.90
1686;DHT22;840;47.980;7.830;2024-01-10T02:12:19;-0.40;99.90
1686;DHT22;840;47.980;7.830;2024-01-10T02:14:46;-0.40;99.90
1686;DHT22;840;47.980;7.830;2024-01-10T02:17:14;-0.40;99.90
1686;DHT22;840;47.980;7.830;2024-01-10T02:19:41;-0.40;99.90
1686;DHT22;840;47.980;7.830;2024-01-10T02:22:08;-0.40;99.90
1686;DHT22;840;47.980;7.830;2024-01-10T02:24:37;-0.40;99.90
1686;DHT22;840;47.980;7.830;2024-01-10T02:27:05;-0.50;99.90
1686;DHT22;840;47.980;7.830;2024-01-10T02:29:34;-0.50;99.90
1686;DHT22;840;47.980;7.830;2024-01-10T02:32:01;-0.50;99.90
1686;DHT22;840;47.980;7.830;2024-01-10T02:34:29;-0.50;99.90
1686;DHT22;840;47.980;7.830;2024-01-10T02:36:56;-0.50;99.90
1686;DHT22;840;47.980;7.830;2024-01-10T02:39:23;-0.60;99.90
1686;DHT22;840;47.980;7.830;2024-01-10T02:41:50;-0.70;99.90
1686;DHT22;840;47.980;7.830;2024-01-10T02:44:18;-0.80;99.90
1686;DHT22;840;47.980;7.830;2024-01-10T02:46:45;-0.90;99.90
1686;DHT22;840;47.980;7.830;2024-01-10T02:49:11;-1.10;99.90
1686;DHT22;840;47.980;7.830;2024-01-10T02:51:38;-1.10;99.90
1686;DHT22;840;47.980;7.830;2024-01-10T02:54:05;-1.10;99.90
1686;DHT22;840;47.980;7.830;2024-01-10T02:56:32;-1.10;99.90
1686;DHT22;840;47.980;7.830;2024-01-10T02:58:58;-1.10;99.90
1686;DHT22;840;47.980;7.830;2024-01-10T03:01:26;-1.10;99.90
1686;DHT22;840;47.980;7.830;2024-01-10T03:03:53;-1.10;99.90
1686;DHT22;840;47.980;7.830;2024-01-10T03:06:20;-1.10;99.90
1686;DHT22;840;47.980;7.830;2024-01-10T03:08:47;-1.10;99.90
1686;DHT22;840;47.980;7.830;2024-01-10T03:11:14;-1.20;99.90
1686;DHT22;840;47.980;7.830;2024-01-10T03:13:42;-1.20;99.90
1686;DHT22;840;47.980;7.830;2024-01-10T03:16:09;-1.20;99.90
1686;DHT22;840;47.980;7.830;2024-01-10T03:18:37;-1.20;99.90
1686;DHT22;840;47.980;7.830;2024-01-10T03:21:04;-1.30;99.90
1686;DHT22;840;47.980;7.830;2024-01-10T03:23:31;-1.20;99.90
1686;DHT22;840;47.980;7.830;2024-01-10T03:25:58;-1.20;99.90
1686;DHT22;840;47.980;7.830;2024-01-10T03:28:24;-1.30;99.90
1686;DHT22;840;47.980;7.830;2024-01-10T03:30:51;-1.30;99.90
1686;DHT22;840;47.980;7.830;2024-01-10T03:33:18;-1.30;99.90
1686;DHT22;840;47.980;7.830;2024-01-10T03:35:46;-1.30;99.90
1686;DHT22;840;47.980;7.830;2024-01-10T03:38:13;-1.30;99.90
1686;DHT22;840;47.980;7.830;2024-01-10T03:40:41;-1.20;99.90
1686;DHT22;840;47.980;7.830;2024-01-10T03:43:08;-1.30;99.90
1686;DHT22;840;47.980;7.830;2024-01-10T03:45:35;-1.30;99.90
1686;DHT22;840;47.980;7.830;2024-01-10T03:48:02;-1.30;99.90
1686;DHT22;840;47.980;7.830;2024-01-10T03:50:29;-1.20;99.90
1686;DHT22;840;47.980;7.830;2024-01-10T03:52:57;-1.20;99.90
1686;DHT22;840;47.980;7.830;2024-01-10T03:55:23;-1.20;99.90
1686;DHT22;840;47.980;7.830;2024-01-10T03:57:50;-1.20;99.90
1686;DHT22;840;47.980;7.830;2024-01-10T04:00:17;-1.10;99.90
1686;DHT22;840;47.980;7.830;2024-01-10T04:02:44;-1.20;99.90
1686;DHT22;840;47.980;7.830;2024-01-10T04:05:11;-1.10;99.90
1686;DHT22;840;47.980;7.830;2024-01-10T04:07:40;-1.10;99.90
1686;DHT22;840;47.980;7.830;2024-01-10T04:10:09;-1.10;99.90
1686;DHT22;840;47.980;7.830;2024-01-10T04:12:36;-1.10;99.90
1686;DHT22;840;47.980;7.830;2024-01-10T04:15:04;-1.10;99.90
1686;DHT22;840;47.980;7.830;2024-01-10T04:17:30;-1.20;99.90
1686;DHT22;840;47.980;7.830;2024-01-10T04:19:57;-1.30;99.90
1686;DHT22;840;47.980;7.830;2024-01-10T04:22:24;-1.30;99.90
1686;DHT22;840;47.980;7.830;2024-01-10T04:24:51;-1.20;99.90
1686;DHT22;840;47.980;7.830;2024-01-10T04:27:19;-1.30;99.90
1686;DHT22;840;47.980;7.830;2024-01-10T04:29:46;-1.30;99.90
1686;DHT22;840;47.980;7.830;2024-01-10T04:32:13;-1.30;99.90
1686;DHT22;840;47.980;7.830;2024-01-10T04:34:39;-1.40;99.90
1686;DHT22;840;47.980;7.830;2024-01-10T04:37:06;-1.40;99.90
1686;DHT22;840;47.980;7.830;2024-01-10T04:39:33;-1.30;99.90
1686;DHT22;840;47.980;7.830;2024-01-10T04:42:01;-1.30;99.90
1686;DHT22;840;47.980;7.830;2024-01-10T04:44:29;-1.40;99.90
1686;DHT22;840;47.980;7.830;2024-01-10T04:46:56;-1.30;99.90
1686;DHT22;840;47.980;7.830;2024-01-10T04:49:23;-1.30;99.90
1686;DHT22;840;47.980;7.830;2024-01-10T04:51:50;-1.30;99.90
1686;DHT22;840;47.980;7.830;2024-01-10T04:54:17;-1.20;99.90
1686;DHT22;840;47.980;7.830;2024-01-10T04:56:43;-1.10;99.90
1686;DHT22;840;47.980;7.830;2024-01-10T04:59:10;-1.10;99.90
1686;DHT22;840;47.980;7.830;2024-01-10T05:01:38;-1.00;99.90
1686;DHT22;840;47.980;7.830;2024-01-10T05:04:05;-1.00;99.90
1686;DHT22;840;47.980;7.830;2024-01-10T05:06:31;-0.90;99.90
1686;DHT22;840;47.980;7.830;2024-01-10T05:08:58;-0.90;99.90
1686;DHT22;840;47.980;7.830;2024-01-10T05:11:25;-0.80;99.90
1686;DHT22;840;47.980;7.830;2024-01-10T05:13:53;-0.80;99.90
1686;DHT22;840;47.980;7.830;2024-01-10T05:16:20;-0.80;99.90
1686;DHT22;840;47.980;7.830;2024-01-10T05:18:48;-0.70;99.90
1686;DHT22;840;47.980;7.830;2024-01-10T05:21:15;-0.70;99.90
1686;DHT22;840;47.980;7.830;2024-01-10T05:23:42;-0.70;99.90
1686;DHT22;840;47.980;7.830;2024-01-10T05:26:08;-0.70;99.90
1686;DHT22;840;47.980;7.830;2024-01-10T05:28:35;-0.70;99.90
1686;DHT22;840;47.980;7.830;2024-01-10T05:31:02;-0.70;99.90
1686;DHT22;840;47.980;7.830;2024-01-10T05:33:30;-0.70;99.90
1686;DHT22;840;47.980;7.830;2024-01-10T05:35:58;-0.60;99.90
1686;DHT22;840;47.980;7.830;2024-01-10T05:38:25;-0.60;99.90
1686;DHT22;840;47.980;7.830;2024-01-10T05:40:52;-0.60;99.90
1686;DHT22;840;47.980;7.830;2024-01-10T05:43:19;-0.60;99.90
1686;DHT22;840;47.980;7.830;2024-01-10T05:45:47;-0.50;99.90
1686;DHT22;840;47.980;7.830;2024-01-10T05:48:13;-0.50;99.90
1686;DHT22;840;47.980;7.830;2024-01-10T05:50:40;-0.40;99.90
1686;DHT22;840;47.980;7.830;2024-01-10T05:53:08;-0.40;99.90
1686;DHT22;840;47.980;7.830;2024-01-10T05:55:35;-0.30;99.90
1686;DHT22;840;47.980;7.830;2024-01-10T05:58:03;-0.40;99.90
1686;DHT22;840;47.980;7.830;2024-01-10T06:00:30;-0.30;99.90
1686;DHT22;840;47.980;7.830;2024-01-10T06:02:57;-0.30;99.90
1686;DHT22;840;47.980;7.830;2024-01-10T06:05:24;-0.30;99.90
1686;DHT22;840;47.980;7.830;2024-01-10T06:07:51;-0.30;99.90
1686;DHT22;840;47.980;7.830;2024-01-10T06:10:19;-0.30;99.90
1686;DHT22;840;47.980;7.830;2024-01-10T06:12:46;-0.30;99.90
1686;DHT22;840;47.980;7.830;2024-01-10T06:15:12;-0.30;99.90
1686;DHT22;840;47.980;7.830;2024-01-10T06:17:39;-0.30;99.90
1686;DHT22;840;47.980;7.830;2024-01-10T06:20:07;-0.50;99.90
1686;DHT22;840;47.980;7.830;2024-01-10T06:22:34;-0.40;99.90
1686;DHT22;840;47.980;7.830;2024-01-10T06:25:01;-0.40;99.90
1686;DHT22;840;47.980;7.830;2024-01-10T06:27:29;-0.40;99.90
1686;DHT22;840;47.980;7.830;2024-01-10T06:29:56;-0.30;99.90
1686;DHT22;840;47.980;7.830;2024-01-10T06:32:23;-0.30;99.90
1686;DHT22;840;47.980;7.830;2024-01-10T06:34:49;-0.20;99.90
1686;DHT22;840;47.980;7.830;2024-01-10T06:37:16;-0.30;99.90
1686;DHT22;840;47.980;7.830;2024-01-10T06:39:43;-0.40;99.90
1686;DHT22;840;47.980;7.830;2024-01-10T06:42:10;-0.50;99.90
1686;DHT22;840;47.980;7.830;2024-01-10T06:44:38;-0.50;99.90
1686;DHT22;840;47.980;7.830;2024-01-10T06:47:05;-0.50;99.90
1686;DHT22;840;47.980;7.830;2024-01-10T06:49:33;-0.60;99.90
1686;DHT22;840;47.980;7.830;2024-01-10T06:52:00;-0.70;99.90
1686;DHT22;840;47.980;7.830;2024-01-10T06:54:26;-0.80;99.90
1686;DHT22;840;47.980;7.830;2024-01-10T06:56:53;-0.80;99.90
1686;DHT22;840;47.980;7.830;2024-01-10T06:59:20;-0.80;99.90
1686;DHT22;840;47.980;7.830;2024-01-10T07:01:52;-0.80;99.90
1686;DHT22;840;47.980;7.830;2024-01-10T07:04:19;-1.00;99.90
1686;DHT22;840;47.980;7.830;2024-01-10T07:06:47;-1.10;99.90
1686;DHT22;840;47.980;7.830;2024-01-10T07:09:14;-1.10;99.90
1686;DHT22;840;47.980;7.830;2024-01-10T07:11:45;-1.30;99.90
1686;DHT22;840;47.980;7.830;2024-01-10T07:14:12;-1.40;99.90
1686;DHT22;840;47.980;7.830;2024-01-10T07:16:39;-1.50;99.90
1686;DHT22;840;47.980;7.830;2024-01-10T07:19:09;-1.50;99.90
1686;DHT22;840;47.980;7.830;2024-01-10T07:21:39;-1.60;99.90
1686;DHT22;840;47.980;7.830;2024-01-10T07:24:06;-1.50;99.90
1686;DHT22;840;47.980;7.830;2024-01-10T07:26:33;-1.40;99.90
1686;DHT22;840;47.980;7.830;2024-01-10T07:29:00;-1.20;99.90
1686;DHT22;840;47.980;7.830;2024-01-10T07:31:30;-1.10;99.90
1686;DHT22;840;47.980;7.830;2024-01-10T07:33:57;-1.00;99.90
1686;DHT22;840;47.980;7.830;2024-01-10T07:36:25;-0.90;99.90
1686;DHT22;840;47.980;7.830;2024-01-10T07:38:52;-0.80;99.90
1686;DHT22;840;47.980;7.830;2024-01-10T07:41:19;-0.80;99.90
1686;DHT22;840;47.980;7.830;2024-01-10T07:43:46;-0.70;99.90
1686;DHT22;840;47.980;7.830;2024-01-10T07:46:12;-0.60;99.90
1686;DHT22;840;47.980;7.830;2024-01-10T07:48:39;-0.60;99.90
1686;DHT22;840;47.980;7.830;2024-01-10T07:51:06;-0.70;99.90
1686;DHT22;840;47.980;7.830;2024-01-10T07:53:34;-0.70;99.90
1686;DHT22;840;47.980;7.830;2024-01-10T07:56:01;-0.70;99.90
1686;DHT22;840;47.980;7.830;2024-01-10T07:58:28;-0.80;99.90
1686;DHT22;840;47.980;7.830;2024-01-10T08:00:55;-0.80;99.90
1686;DHT22;840;47.980;7.830;2024-01-10T08:03:21;-0.70;99.90
1686;DHT22;840;47.980;7.830;2024-01-10T08:05:48;-0.60;99.90
1686;DHT22;840;47.980;7.830;2024-01-10T08:08:15;-0.60;99.90
1686;DHT22;840;47.980;7.830;2024-01-10T08:10:43;-0.70;99.90
1686;DHT22;840;47.980;7.830;2024-01-10T08:13:10;-0.80;99.90
1686;DHT22;840;47.980;7.830;2024-01-10T08:15:37;-0.90;99.90
1686;DHT22;840;47.980;7.830;2024-01-10T08:18:04;-1.00;99.90
1686;DHT22;840;47.980;7.830;2024-01-10T08:20:32;-1.00;99.90
1686;DHT22;840;47.980;7.830;2024-01-10T08:22:59;-1.10;99.90
1686;DHT22;840;47.980;7.830;2024-01-10T08:25:26;-1.10;99.90
1686;DHT22;840;47.980;7.830;2024-01-10T08:27:54;-1.10;99.90
1686;DHT22;840;47.980;7.830;2024-01-10T08:30:23;-1.10;99.90
1686;DHT22;840;47.980;7.830;2024-01-10T08:32:51;-1.10;99.90
1686;DHT22;840;47.980;7.830;2024-01-10T08:35:18;-1.10;99.90
1686;DHT22;840;47.980;7.830;2024-01-10T08:37:45;-1.20;99.90
1686;DHT22;840;47.980;7.830;2024-01-10T08:40:12;-1.20;99.90
1686;DHT22;840;47.980;7.830;2024-01-10T08:42:40;-1.20;99.90
1686;DHT22;840;47.980;7.830;2024-01-10T08:45:09;-1.30;99.90
1686;DHT22;840;47.980;7.830;2024-01-10T08:47:37;-1.30;99.90
1686;DHT22;840;47.980;7.830;2024-01-10T08:50:05;-1.40;99.90
1686;DHT22;840;47.980;7.830;2024-01-10T08:52:34;-1.30;99.90
1686;DHT22;840;47.980;7.830;2024-01-10T08:55:02;-1.30;99.90
1686;DHT22;840;47.980;7.830;2024-01-10T08:57:29;-1.40;99.90
1686;DHT22;840;47.980;7.830;2024-01-10T08:59:56;-1.40;99.90
1686;DHT22;840;47.980;7.830;2024-01-10T09:02:24;-1.30;99.90
1686;DHT22;840;47.980;7.830;2024-01-10T09:04:52;-1.30;99.90
1686;DHT22;840;47.980;7.830;2024-01-10T09:07:19;-1.20;99.90
1686;DHT22;840;47.980;7.830;2024-01-10T09:09:46;-1.00;99.90
1686;DHT22;840;47.980;7.830;2024-01-10T09:12:13;-0.90;99.90
1686;DHT22;840;47.980;7.830;2024-01-10T09:14:40;-0.90;99.90
1686;DHT22;840;47.980;7.830;2024-01-10T09:17:07;-0.90;99.90
1686;DHT22;840;47.980;7.830;2024-01-10T09:19:35;-0.90;99.90
1686;DHT22;840;47.980;7.830;2024-01-10T09:22:02;-0.90;99.90
1686;DHT22;840;47.980;7.830;2024-01-10T09:24:29;-0.80;99.90
1686;DHT22;840;47.980;7.830;2024-01-10T09:26:56;-0.70;99.90
1686;DHT22;840;47.980;7.830;2024-01-10T09:29:23;-0.60;99.90
1686;DHT22;840;47.980;7.830;2024-01-10T09:31:51;-0.70;99.90
1686;DHT22;840;47.980;7.830;2024-01-10T09:34:17;-0.60;99.90
1686;DHT22;840;47.980;7.830;2024-01-10T09:36:46;-0.60;99.90
1686;DHT22;840;47.980;7.830;2024-01-10T09:39:12;-0.50;99.90
1686;DHT22;840;47.980;7.830;2024-01-10T09:41:45;-0.50;99.90
1686;DHT22;840;47.980;7.830;2024-01-10T09:44:12;-0.30;99.90
1686;DHT22;840;47.980;7.830;2024-01-10T09:46:41;-0.20;99.90
1686;DHT22;840;47.980;7.830;2024-01-10T09:49:10;-0.20;99.90
1686;DHT22;840;47.980;7.830;2024-01-10T09:51:37;-0.20;99.90
1686;DHT22;840;47.980;7.830;2024-01-10T09:54:05;0.00;99.90
1686;DHT22;840;47.980;7.830;2024-01-10T09:56:32;0.00;99.90
1686;DHT22;840;47.980;7.830;2024-01-10T09:59:01;0.10;99.90
1686;DHT22;840;47.980;7.830;2024-01-10T10:01:31;0.10;99.90
1686;DHT22;840;47.980;7.830;2024-01-10T10:03:59;0.20;99.90
1686;DHT22;840;47.980;7.830;2024-01-10T10:06:27;0.20;99.90
1686;DHT22;840;47.980;7.830;2024-01-10T10:08:54;0.00;99.90
1686;DHT22;840;47.980;7.830;2024-01-10T10:11:22;0.00;99.90
1686;DHT22;840;47.980;7.830;2024-01-10T10:13:48;0.00;99.90
1686;DHT22;840;47.980;7.830;2024-01-10T10:16:23;0.10;99.90
1686;DHT22;840;47.980;7.830;2024-01-10T10:18:51;0.20;99.90
1686;DHT22;840;47.980;7.830;2024-01-10T10:21:24;0.10;99.90
1686;DHT22;840;47.980;7.830;2024-01-10T10:23:59;0.00;99.90
1686;DHT22;840;47.980;7.830;2024-01-10T10:26:28;0.00;99.90
1686;DHT22;840;47.980;7.830;2024-01-10T10:28:54;0.10;99.90
1686;DHT22;840;47.980;7.830;2024-01-10T10:31:23;0.00;99.90
1686;DHT22;840;47.980;7.830;2024-01-10T10:33:51;-0.10;99.90
1686;DHT22;840;47.980;7.830;2024-01-10T10:36:18;0.00;99.90
1686;DHT22;840;47.980;7.830;2024-01-10T10:38:46;0.10;99.90
1686;DHT22;840;47.980;7.830;2024-01-10T10:41:14;0.20;99.90
1686;DHT22;840;47.980;7.830;2024-01-10T10:43:42;0.30;99.90
1686;DHT22;840;47.980;7.830;2024-01-10T10:46:09;0.40;99.90
1686;DHT22;840;47.980;7.830;2024-01-10T10:48:38;0.40;99.90
1686;DHT22;840;47.980;7.830;2024-01-10T10:51:06;0.50;99.90
1686;DHT22;840;47.980;7.830;2024-01-10T10:53:34;0.60;99.90
1686;DHT22;840;47.980;7.830;2024-01-10T10:56:03;0.60;99.90
1686;DHT22;840;47.980;7.830;2024-01-10T10:58:32;0.50;99.90
1686;DHT22;840;47.980;7.830;2024-01-10T11:01:03;0.40;99.90
1686;DHT22;840;47.980;7.830;2024-01-10T11:03:31;0.30;99.90
1686;DHT22;840;47.980;7.830;2024-01-10T11:06:01;0.30;99.90
1686;DHT22;840;47.980;7.830;2024-01-10T11:08:30;0.40;99.90
1686;DHT22;840;47.980;7.830;2024-01-10T11:11:00;0.50;99.90
1686;DHT22;840;47.980;7.830;2024-01-10T11:13:41;0.60;99.90
1686;DHT22;840;47.980;7.830;2024-01-10T11:22:39;0.50;99.90
1686;DHT22;840;47.980;7.830;2024-01-10T11:25:07;0.60;99.90
1686;DHT22;840;47.980;7.830;2024-01-10T11:27:34;0.60;99.90
1686;DHT22;840;47.980;7.830;2024-01-10T11:30:03;0.60;99.90
1686;DHT22;840;47.980;7.830;2024-01-10T11:32:32;0.70;99.90
1686;DHT22;840;47.980;7.830;2024-01-10T11:35:03;0.80;99.90
1686;DHT22;840;47.980;7.830;2024-01-10T11:37:39;0.90;99.90
1686;DHT22;840;47.980;7.830;2024-01-10T11:40:07;0.70;99.90
1686;DHT22;840;47.980;7.830;2024-01-10T11:42:41;0.70;99.90
1686;DHT22;840;47.980;7.830;2024-01-10T11:45:08;0.60;99.90
1686;DHT22;840;47.980;7.830;2024-01-10T11:47:39;0.60;99.90
1686;DHT22;840;47.980;7.830;2024-01-10T11:50:07;0.50;99.90
1686;DHT22;840;47.980;7.830;2024-01-10T11:52:36;0.50;99.90
1686;DHT22;840;47.980;7.830;2024-01-10T11:55:04;0.50;99.90
1686;DHT22;840;47.980;7.830;2024-01-10T11:57:32;0.40;99.90
1686;DHT22;840;47.980;7.830;2024-01-10T11:59:59;0.40;99.90
1686;DHT22;840;47.980;7.830;2024-01-10T12:02:27;0.40;99.90
1686;DHT22;840;47.980;7.830;2024-01-10T12:04:55;0.40;99.90
1686;DHT22;840;47.980;7.830;2024-01-10T12:07:22;0.50;99.90
1686;DHT22;840;47.980;7.830;2024-01-10T12:09:50;0.50;99.90
1686;DHT22;840;47.980;7.830;2024-01-10T12:12:17;0.50;99.90
1686;DHT22;840;47.980;7.830;2024-01-10T12:14:44;0.60;99.90
1686;DHT22;840;47.980;7.830;2024-01-10T12:17:11;0.60;99.90
1686;DHT22;840;47.980;7.830;2024-01-10T12:19:38;0.60;99.90
1686;DHT22;840;47.980;7.830;2024-01-10T12:22:06;0.60;99.90
1686;DHT22;840;47.980;7.830;2024-01-10T12:24:33;0.70;99.90
1686;DHT22;840;47.980;7.830;2024-01-10T12:26:59;0.80;99.90
1686;DHT22;840;47.980;7.830;2024-01-10T12:29:26;0.90;99.90
1686;DHT22;840;47.980;7.830;2024-01-10T12:31:53;1.00;99.90
1686;DHT22;840;47.980;7.830;2024-01-10T12:34:20;1.00;99.90
1686;DHT22;840;47.980;7.830;2024-01-10T12:36:47;0.90;99.90
1686;DHT22;840;47.980;7.830;2024-01-10T12:39:19;0.90;99.90
1686;DHT22;840;47.980;7.830;2024-01-10T12:41:49;0.90;99.90
1686;DHT22;840;47.980;7.830;2024-01-10T12:44:16;0.80;99.90
1686;DHT22;840;47.980;7.830;2024-01-10T12:46:50;0.80;99.90
1686;DHT22;840;47.980;7.830;2024-01-10T12:49:18;0.90;99.90
1686;DHT22;840;47.980;7.830;2024-01-10T12:51:47;1.00;99.90
1686;DHT22;840;47.980;7.830;2024-01-10T12:54:14;1.10;99.90
1686;DHT22;840;47.980;7.830;2024-01-10T12:56:42;1.20;99.90
1686;DHT22;840;47.980;7.830;2024-01-10T12:59:09;1.30;99.90
1686;DHT22;840;47.980;7.830;2024-01-10T13:01:36;1.20;99.90
1686;DHT22;840;47.980;7.830;2024-01-10T13:04:13;1.10;99.90
1686;DHT22;840;47.980;7.830;2024-01-10T13:06:39;1.20;99.90
1686;DHT22;840;47.980;7.830;2024-01-10T13:09:06;1.10;99.90
1686;DHT22;840;47.980;7.830;2024-01-10T13:11:33;1.10;99.90
1686;DHT22;840;47.980;7.830;2024-01-10T13:14:01;1.10;99.90
1686;DHT22;840;47.980;7.830;2024-01-10T13:16:28;1.00;99.90
1686;DHT22;840;47.980;7.830;2024-01-10T13:18:55;1.00;99.90
1686;DHT22;840;47.980;7.830;2024-01-10T13:21:23;0.90;99.90
1686;DHT22;840;47.980;7.830;2024-01-10T13:23:49;0.90;99.90
1686;DHT22;840;47.980;7.830;2024-01-10T13:26:16;0.90;99.90
1686;DHT22;840;47.980;7.830;2024-01-10T13:28:43;0.90;99.90
1686;DHT22;840;47.980;7.830;2024-01-10T13:31:11;0.90;99.90
1686;DHT22;840;47.980;7.830;2024-01-10T13:33:38;1.00;99.90
1686;DHT22;840;47.980;7.830;2024-01-10T13:36:05;1.00;99.90
1686;DHT22;840;47.980;7.830;2024-01-10T13:38:32;1.10;99.90
1686;DHT22;840;47.980;7.830;2024-01-10T13:40:58;1.20;99.90
1686;DHT22;840;47.980;7.830;2024-01-10T13:43:26;1.20;99.90
1686;DHT22;840;47.980;7.830;2024-01-10T13:45:53;1.30;99.90
1686;DHT22;840;47.980;7.830;2024-01-10T13:48:22;1.30;99.90
1686;DHT22;840;47.980;7.830;2024-01-10T13:50:48;1.30;99.90
1686;DHT22;840;47.980;7.830;2024-01-10T13:53:15;1.40;99.90
1686;DHT22;840;47.980;7.830;2024-01-10T13:55:42;1.40;99.90
1686;DHT22;840;47.980;7.830;2024-01-10T13:58:09;1.50;99.90
1686;DHT22;840;47.980;7.830;2024-01-10T14:00:36;1.60;99.90
1686;DHT22;840;47.980;7.830;2024-01-10T14:03:03;1.70;99.90
1686;DHT22;840;47.980;7.830;2024-01-10T14:05:32;1.70;99.90
1686;DHT22;840;47.980;7.830;2024-01-10T14:07:58;1.80;99.90
1686;DHT22;840;47.980;7.830;2024-01-10T14:10:25;1.90;99.90
1686;DHT22;840;47.980;7.830;2024-01-10T14:12:52;1.90;99.90
1686;DHT22;840;47.980;7.830;2024-01-10T14:15:18;1.90;99.90
1686;DHT22;840;47.980;7.830;2024-01-10T14:17:46;2.00;99.90
1686;DHT22;840;47.980;7.830;2024-01-10T14:20:12;2.00;99.90
1686;DHT22;840;47.980;7.830;2024-01-10T14:22:40;2.10;99.90
1686;DHT22;840;47.980;7.830;2024-01-10T14:25:08;2.30;99.90
1686;DHT22;840;47.980;7.830;2024-01-10T14:27:35;2.40;99.90
1686;DHT22;840;47.980;7.830;2024-01-10T14:30:05;2.50;99.90
1686;DHT22;840;47.980;7.830;2024-01-10T14:32:33;2.60;99.90
1686;DHT22;840;47.980;7.830;2024-01-10T14:35:00;2.60;99.90
1686;DHT22;840;47.980;7.830;2024-01-10T14:37:27;2.70;99.90
1686;DHT22;840;47.980;7.830;2024-01-10T14:39:56;2.80;99.90
1686;DHT22;840;47.980;7.830;2024-01-10T14:42:23;2.80;99.90
1686;DHT22;840;47.980;7.830;2024-01-10T14:44:50;2.90;99.90
1686;DHT22;840;47.980;7.830;2024-01-10T14:47:16;2.90;99.90
1686;DHT22;840;47.980;7.830;2024-01-10T14:49:44;2.80;99.90
1686;DHT22;840;47.980;7.830;2024-01-10T14:52:11;2.80;99.90
1686;DHT22;840;47.980;7.830;2024-01-10T14:54:37;2.70;99.90
1686;DHT22;840;47.980;7.830;2024-01-10T14:57:05;2.70;99.90
1686;DHT22;840;47.980;7.830;2024-01-10T14:59:33;2.60;99.90
1686;DHT22;840;47.980;7.830;2024-01-10T15:01:59;2.50;99.90
1686;DHT22;840;47.980;7.830;2024-01-10T15:04:26;2.50;99.90
1686;DHT22;840;47.980;7.830;2024-01-10T15:06:53;2.40;99.90
1686;DHT22;840;47.980;7.830;2024-01-10T15:09:22;2.30;99.90
1686;DHT22;840;47.980;7.830;2024-01-10T15:11:49;2.30;99.90
1686;DHT22;840;47.980;7.830;2024-01-10T15:14:17;2.20;99.90
1686;DHT22;840;47.980;7.830;2024-01-10T15:16:45;2.10;99.90
1686;DHT22;840;47.980;7.830;2024-01-10T15:19:12;2.00;99.90
1686;DHT22;840;47.980;7.830;2024-01-10T15:21:39;1.90;99.90
1686;DHT22;840;47.980;7.830;2024-01-10T15:24:06;1.80;99.90
1686;DHT22;840;47.980;7.830;2024-01-10T15:26:33;1.70;99.90
1686;DHT22;840;47.980;7.830;2024-01-10T15:28:59;1.60;99.90
1686;DHT22;840;47.980;7.830;2024-01-10T15:31:28;1.60;99.90
1686;DHT22;840;47.980;7.830;2024-01-10T15:33:55;1.50;99.90
1686;DHT22;840;47.980;7.830;2024-01-10T15:36:21;1.40;99.90
1686;DHT22;840;47.980;7.830;2024-01-10T15:38:48;1.30;99.90
1686;DHT22;840;47.980;7.830;2024-01-10T15:41:16;1.30;99.90
1686;DHT22;840;47.980;7.830;2024-01-10T15:43:43;1.30;99.90
1686;DHT22;840;47.980;7.830;2024-01-10T15:46:17;1.20;99.90
1686;DHT22;840;47.980;7.830;2024-01-10T15:48:45;1.10;99.90
1686;DHT22;840;47.980;7.830;2024-01-10T15:51:12;1.10;99.90
1686;DHT22;840;47.980;7.830;2024-01-10T15:53:40;1.00;99.90
1686;DHT22;840;47.980;7.830;2024-01-10T15:56:09;1.00;99.90
1686;DHT22;840;47.980;7.830;2024-01-10T15:58:36;0.90;99.90
1686;DHT22;840;47.980;7.830;2024-01-10T16:01:03;0.80;99.90
1686;DHT22;840;47.980;7.830;2024-01-10T16:03:30;0.80;99.90
1686;DHT22;840;47.980;7.830;2024-01-10T16:05:58;0.80;99.90
1686;DHT22;840;47.980;7.830;2024-01-10T16:08:25;0.70;99.90
1686;DHT22;840;47.980;7.830;2024-01-10T16:10:52;0.70;99.90
1686;DHT22;840;47.980;7.830;2024-01-10T16:13:18;0.80;99.90
1686;DHT22;840;47.980;7.830;2024-01-10T16:15:45;0.80;99.90
1686;DHT22;840;47.980;7.830;2024-01-10T16:18:12;0.90;99.90
1686;DHT22;840;47.980;7.830;2024-01-10T16:20:38;0.90;99.90
1686;DHT22;840;47.980;7.830;2024-01-10T16:23:07;0.90;99.90
1686;DHT22;840;47.980;7.830;2024-01-10T16:25:34;0.90;99.90
1686;DHT22;840;47.980;7.830;2024-01-10T16:28:00;0.90;99.90
1686;DHT22;840;47.980;7.830;2024-01-10T16:30:28;0.90;99.90
1686;DHT22;840;47.980;7.830;2024-01-10T16:32:55;0.90;99.90